sensor_id;sensor_type;location;lat;lon;timestamp;P1;durP1;ratioP1;P2;durP2;ratioP2
7047;SDS011;3565;53.254;10.352;2022-12-29T09:30:12;1.30;;;1.20;;
7047;SDS011;3565;53.254;10.352;2022-12-29T09:32:41;2.33;;;1.33;;
7047;SDS011;3565;53.254;10.352;2022-12-29T09:37:47;2.47;;;1.20;;
7047;SDS011;3565;53.254;10.352;2022-12-29T09:42:38;4.23;;;2.53;;
7047;SDS011;3565;53.254;10.352;2022-12-29T09:45:12;2.23;;;1.70;;
7047;SDS011;3565;53.254;10.352;2022-12-29T09:47:42;2.53;;;1.50;;
7047;SDS011;3565;53.254;10.352;2022-12-29T09:50:16;5.60;;;1.90;;
7047;SDS011;3565;53.254;10.352;2022-12-29T09:52:48;2.33;;;1.60;;
7047;SDS011;3565;53.254;10.352;2022-12-29T09:55:20;1.87;;;1.40;;
7047;SDS011;3565;53.254;10.352;2022-12-29T09:57:54;3.30;;;2.60;;
7047;SDS011;3565;53.254;10.352;2022-12-29T10:02:29;2.97;;;1.90;;
7047;SDS011;3565;53.254;10.352;2022-12-29T10:05:20;4.13;;;1.90;;
7047;SDS011;3565;53.254;10.352;2022-12-29T10:07:43;2.10;;;1.50;;
7047;SDS011;3565;53.254;10.352;2022-12-29T10:10:17;3.23;;;1.47;;
7047;SDS011;3565;53.254;10.352;2022-12-29T10:12:56;2.63;;;1.60;;
7047;SDS011;3565;53.254;10.352;2022-12-29T10:15:43;4.07;;;1.67;;
7047;SDS011;3565;53.254;10.352;2022-12-29T10:18:19;4.70;;;1.70;;
7047;SDS011;3565;53.254;10.352;2022-12-29T10:20:54;3.43;;;2.20;;
7047;SDS011;3565;53.254;10.352;2022-12-29T10:23:27;5.23;;;2.37;;
7047;SDS011;3565;53.254;10.352;2022-12-29T10:25:59;2.33;;;1.67;;
7047;SDS011;3565;53.254;10.352;2022-12-29T10:28:33;3.53;;;1.77;;
7047;SDS011;3565;53.254;10.352;2022-12-29T10:31:07;9.47;;;2.17;;
7047;SDS011;3565;53.254;10.352;2022-12-29T10:33:40;4.93;;;1.73;;
7047;SDS011;3565;53.254;10.352;2022-12-29T10:36:15;2.47;;;1.50;;
7047;SDS011;3565;53.254;10.352;2022-12-29T10:38:48;6.10;;;1.87;;
7047;SDS011;3565;53.254;10.352;2022-12-29T10:41:23;5.07;;;1.80;;
7047;SDS011;3565;53.254;10.352;2022-12-29T10:43:54;5.23;;;1.90;;
7047;SDS011;3565;53.254;10.352;2022-12-29T10:46:25;2.80;;;1.53;;
7047;SDS011;3565;53.254;10.352;2022-12-29T10:48:56;4.30;;;1.80;;
7047;SDS011;3565;53.254;10.352;2022-12-29T10:51:26;5.77;;;1.90;;
7047;SDS011;3565;53.254;10.352;2022-12-29T10:53:59;4.07;;;2.07;;
7047;SDS011;3565;53.254;10.352;2022-12-29T10:56:33;2.47;;;1.60;;
7047;SDS011;3565;53.254;10.352;2022-12-29T10:59:05;5.43;;;2.13;;
7047;SDS011;3565;53.254;10.352;2022-12-29T11:01:37;4.50;;;1.87;;
7047;SDS011;3565;53.254;10.352;2022-12-29T11:04:19;5.37;;;1.77;;
7047;SDS011;3565;53.254;10.352;2022-12-29T11:06:52;5.63;;;2.03;;
7047;SDS011;3565;53.254;10.352;2022-12-29T11:09:24;2.40;;;1.60;;
7047;SDS011;3565;53.254;10.352;2022-12-29T11:11:58;8.50;;;1.90;;
7047;SDS011;3565;53.254;10.352;2022-12-29T11:14:27;4.37;;;1.60;;
7047;SDS011;3565;53.254;10.352;2022-12-29T11:16:58;6.40;;;1.70;;
7047;SDS011;3565;53.254;10.352;2022-12-29T11:19:28;2.97;;;1.70;;
7047;SDS011;3565;53.254;10.352;2022-12-29T11:22:11;3.27;;;1.50;;
7047;SDS011;3565;53.254;10.352;2022-12-29T11:24:44;5.53;;;2.20;;
7047;SDS011;3565;53.254;10.352;2022-12-29T11:27:16;3.93;;;1.90;;
7047;SDS011;3565;53.254;10.352;2022-12-29T11:29:46;4.43;;;2.00;;
7047;SDS011;3565;53.254;10.352;2022-12-29T11:32:18;5.13;;;1.83;;
7047;SDS011;3565;53.254;10.352;2022-12-29T11:34:48;3.77;;;1.60;;
7047;SDS011;3565;53.254;10.352;2022-12-29T11:37:17;2.27;;;1.60;;
7047;SDS011;3565;53.254;10.352;2022-12-29T11:39:50;3.70;;;2.10;;
7047;SDS011;3565;53.254;10.352;2022-12-29T11:42:21;5.17;;;1.90;;
7047;SDS011;3565;53.254;10.352;2022-12-29T11:44:52;6.30;;;2.00;;
7047;SDS011;3565;53.254;10.352;2022-12-29T11:47:23;4.03;;;1.70;;
7047;SDS011;3565;53.254;10.352;2022-12-29T11:50:00;4.73;;;2.10;;
7047;SDS011;3565;53.254;10.352;2022-12-29T11:52:25;4.60;;;2.03;;
7047;SDS011;3565;53.254;10.352;2022-12-29T11:54:57;5.50;;;2.00;;
7047;SDS011;3565;53.254;10.352;2022-12-29T11:57:27;3.80;;;1.70;;
7047;SDS011;3565;53.254;10.352;2022-12-29T11:59:58;5.57;;;2.20;;
7047;SDS011;3565;53.254;10.352;2022-12-29T12:02:35;6.50;;;2.00;;
7047;SDS011;3565;53.254;10.352;2022-12-29T12:05:11;3.40;;;1.83;;
7047;SDS011;3565;53.254;10.352;2022-12-29T16:47:18;7.53;;;2.47;;
7047;SDS011;3565;53.254;10.352;2022-12-29T16:49:48;5.00;;;2.50;;
7047;SDS011;3565;53.254;10.352;2022-12-29T16:52:19;4.70;;;2.50;;
7047;SDS011;3565;53.254;10.352;2022-12-29T16:55:01;8.17;;;2.80;;
7047;SDS011;3565;53.254;10.352;2022-12-29T16:57:31;4.17;;;2.87;;
7047;SDS011;3565;53.254;10.352;2022-12-29T17:00:00;6.20;;;2.67;;
7047;SDS011;3565;53.254;10.352;2022-12-29T17:02:46;5.90;;;2.87;;
7047;SDS011;3565;53.254;10.352;2022-12-29T17:05:16;5.73;;;2.70;;
7047;SDS011;3565;53.254;10.352;2022-12-29T17:07:45;5.77;;;3.13;;
7047;SDS011;3565;53.254;10.352;2022-12-29T17:13:19;8.07;;;3.07;;
7047;SDS011;3565;53.254;10.352;2022-12-29T17:15:48;6.60;;;3.40;;
7047;SDS011;3565;53.254;10.352;2022-12-29T17:20:57;6.80;;;3.23;;
7047;SDS011;3565;53.254;10.352;2022-12-29T17:23:25;6.30;;;3.27;;
7047;SDS011;3565;53.254;10.352;2022-12-29T17:25:53;5.00;;;2.90;;
7047;SDS011;3565;53.254;10.352;2022-12-29T17:28:22;6.03;;;2.97;;
7047;SDS011;3565;53.254;10.352;2022-12-29T17:30:52;6.40;;;3.27;;
7047;SDS011;3565;53.254;10.352;2022-12-29T17:33:21;6.93;;;3.00;;
7047;SDS011;3565;53.254;10.352;2022-12-29T17:35:49;10.07;;;3.90;;
7047;SDS011;3565;53.254;10.352;2022-12-29T17:38:18;9.40;;;3.60;;
7047;SDS011;3565;53.254;10.352;2022-12-29T17:40:46;7.30;;;3.60;;
7047;SDS011;3565;53.254;10.352;2022-12-29T17:43:15;7.63;;;3.80;;
7047;SDS011;3565;53.254;10.352;2022-12-29T17:45:46;7.17;;;3.17;;
7047;SDS011;3565;53.254;10.352;2022-12-29T17:48:17;7.13;;;3.50;;
7047;SDS011;3565;53.254;10.352;2022-12-29T17:50:47;8.87;;;4.60;;
7047;SDS011;3565;53.254;10.352;2022-12-29T17:53:20;7.27;;;3.17;;
7047;SDS011;3565;53.254;10.352;2022-12-29T17:58:34;9.97;;;3.70;;
7047;SDS011;3565;53.254;10.352;2022-12-29T18:01:03;6.50;;;3.80;;
7047;SDS011;3565;53.254;10.352;2022-12-29T18:03:32;9.80;;;3.50;;
7047;SDS011;3565;53.254;10.352;2022-12-29T18:06:01;7.00;;;3.50;;
7047;SDS011;3565;53.254;10.352;2022-12-29T18:11:18;7.77;;;4.20;;
7047;SDS011;3565;53.254;10.352;2022-12-29T18:13:46;8.77;;;4.00;;
7047;SDS011;3565;53.254;10.352;2022-12-29T18:16:14;8.03;;;3.80;;
7047;SDS011;3565;53.254;10.352;2022-12-29T18:18:44;8.33;;;3.70;;
7047;SDS011;3565;53.254;10.352;2022-12-29T18:21:16;7.37;;;3.67;;
7047;SDS011;3565;53.254;10.352;2022-12-29T18:23:46;6.57;;;3.60;;
7047;SDS011;3565;53.254;10.352;2022-12-29T18:26:17;6.70;;;3.23;;
7047;SDS011;3565;53.254;10.352;2022-12-29T18:28:46;11.23;;;3.73;;
7047;SDS011;3565;53.254;10.352;2022-12-29T18:33:53;8.00;;;3.40;;
7047;SDS011;3565;53.254;10.352;2022-12-29T18:36:23;10.13;;;3.30;;
7047;SDS011;3565;53.254;10.352;2022-12-29T18:38:52;4.60;;;2.93;;
7047;SDS011;3565;53.254;10.352;2022-12-29T18:41:20;7.70;;;3.50;;
7047;SDS011;3565;53.254;10.352;2022-12-29T18:43:51;7.00;;;3.27;;
7047;SDS011;3565;53.254;10.352;2022-12-29T18:46:20;10.20;;;3.43;;
7047;SDS011;3565;53.254;10.352;2022-12-29T18:48:50;10.10;;;3.47;;
7047;SDS011;3565;53.254;10.352;2022-12-29T18:51:20;8.67;;;3.53;;
7047;SDS011;3565;53.254;10.352;2022-12-29T18:53:48;5.77;;;3.50;;
7047;SDS011;3565;53.254;10.352;2022-12-29T18:56:19;7.30;;;3.80;;
7047;SDS011;3565;53.254;10.352;2022-12-29T18:58:47;6.53;;;3.63;;
7047;SDS011;3565;53.254;10.352;2022-12-29T19:01:21;7.90;;;3.37;;
7047;SDS011;3565;53.254;10.352;2022-12-29T19:03:48;8.10;;;3.93;;
7047;SDS011;3565;53.254;10.352;2022-12-29T19:06:17;10.37;;;3.90;;
7047;SDS011;3565;53.254;10.352;2022-12-29T19:08:46;10.53;;;3.60;;
7047;SDS011;3565;53.254;10.352;2022-12-29T19:11:14;5.47;;;3.07;;
7047;SDS011;3565;53.254;10.352;2022-12-29T19:13:44;8.23;;;3.67;;
7047;SDS011;3565;53.254;10.352;2022-12-29T19:16:13;10.63;;;3.83;;
7047;SDS011;3565;53.254;10.352;2022-12-29T19:18:42;5.37;;;3.10;;
7047;SDS011;3565;53.254;10.352;2022-12-29T19:21:12;11.20;;;3.63;;
7047;SDS011;3565;53.254;10.352;2022-12-29T19:23:40;6.80;;;2.90;;
7047;SDS011;3565;53.254;10.352;2022-12-29T19:26:10;7.63;;;2.87;;
7047;SDS011;3565;53.254;10.352;2022-12-29T19:28:39;8.20;;;2.87;;
7047;SDS011;3565;53.254;10.352;2022-12-29T19:31:07;5.83;;;3.20;;
7047;SDS011;3565;53.254;10.352;2022-12-29T19:33:37;8.03;;;3.60;;
7047;SDS011;3565;53.254;10.352;2022-12-29T19:36:07;6.10;;;2.50;;
7047;SDS011;3565;53.254;10.352;2022-12-29T19:38:37;6.10;;;3.07;;
7047;SDS011;3565;53.254;10.352;2022-12-29T19:41:06;9.00;;;3.60;;
7047;SDS011;3565;53.254;10.352;2022-12-29T19:43:34;5.73;;;3.23;;
7047;SDS011;3565;53.254;10.352;2022-12-29T19:48:43;7.50;;;3.10;;
7047;SDS011;3565;53.254;10.352;2022-12-29T19:51:12;7.13;;;3.00;;
7047;SDS011;3565;53.254;10.352;2022-12-29T19:53:44;4.97;;;2.90;;
7047;SDS011;3565;53.254;10.352;2022-12-29T19:56:12;7.73;;;3.40;;
7047;SDS011;3565;53.254;10.352;2022-12-29T19:58:41;7.43;;;2.90;;
7047;SDS011;3565;53.254;10.352;2022-12-29T20:01:10;6.33;;;3.30;;
7047;SDS011;3565;53.254;10.352;2022-12-29T20:03:39;8.90;;;2.87;;
7047;SDS011;3565;53.254;10.352;2022-12-29T20:06:08;3.90;;;2.60;;
7047;SDS011;3565;53.254;10.352;2022-12-29T20:08:38;8.30;;;2.90;;
7047;SDS011;3565;53.254;10.352;2022-12-29T20:11:07;4.30;;;2.63;;
7047;SDS011;3565;53.254;10.352;2022-12-29T20:16:13;6.70;;;3.30;;
7047;SDS011;3565;53.254;10.352;2022-12-29T20:18:42;8.00;;;3.03;;
7047;SDS011;3565;53.254;10.352;2022-12-29T20:21:12;4.83;;;2.73;;
7047;SDS011;3565;53.254;10.352;2022-12-29T20:23:41;5.73;;;2.60;;
7047;SDS011;3565;53.254;10.352;2022-12-29T20:26:12;3.50;;;2.53;;
7047;SDS011;3565;53.254;10.352;2022-12-29T20:28:40;5.33;;;2.80;;
7047;SDS011;3565;53.254;10.352;2022-12-29T20:31:14;5.40;;;2.70;;
7047;SDS011;3565;53.254;10.352;2022-12-29T20:33:42;6.27;;;3.00;;
7047;SDS011;3565;53.254;10.352;2022-12-29T20:36:11;7.70;;;2.60;;
7047;SDS011;3565;53.254;10.352;2022-12-29T20:38:41;3.30;;;2.37;;
7047;SDS011;3565;53.254;10.352;2022-12-29T20:41:09;3.53;;;2.13;;
7047;SDS011;3565;53.254;10.352;2022-12-29T20:43:39;4.77;;;2.33;;
7047;SDS011;3565;53.254;10.352;2022-12-29T20:46:09;4.47;;;2.47;;
7047;SDS011;3565;53.254;10.352;2022-12-29T20:48:49;5.10;;;2.50;;
7047;SDS011;3565;53.254;10.352;2022-12-29T20:51:19;5.10;;;2.63;;
7047;SDS011;3565;53.254;10.352;2022-12-29T20:53:48;4.20;;;2.10;;
7047;SDS011;3565;53.254;10.352;2022-12-29T20:56:17;5.07;;;2.40;;
7047;SDS011;3565;53.254;10.352;2022-12-29T20:58:48;3.20;;;2.40;;
7047;SDS011;3565;53.254;10.352;2022-12-29T21:01:18;3.50;;;2.70;;
7047;SDS011;3565;53.254;10.352;2022-12-29T21:03:50;5.23;;;3.07;;
7047;SDS011;3565;53.254;10.352;2022-12-29T21:06:19;5.97;;;3.00;;
7047;SDS011;3565;53.254;10.352;2022-12-29T21:08:47;7.10;;;3.30;;
7047;SDS011;3565;53.254;10.352;2022-12-29T21:11:19;7.73;;;3.53;;
7047;SDS011;3565;53.254;10.352;2022-12-29T21:13:48;5.70;;;3.27;;
7047;SDS011;3565;53.254;10.352;2022-12-29T21:16:16;5.13;;;3.17;;
7047;SDS011;3565;53.254;10.352;2022-12-29T21:18:46;3.80;;;2.60;;
7047;SDS011;3565;53.254;10.352;2022-12-29T21:21:16;3.23;;;2.70;;
7047;SDS011;3565;53.254;10.352;2022-12-29T21:23:45;4.07;;;2.20;;
7047;SDS011;3565;53.254;10.352;2022-12-29T21:26:14;5.80;;;2.30;;
7047;SDS011;3565;53.254;10.352;2022-12-29T21:28:43;2.80;;;2.20;;
7047;SDS011;3565;53.254;10.352;2022-12-29T21:31:14;3.30;;;2.07;;
7047;SDS011;3565;53.254;10.352;2022-12-29T21:33:43;4.47;;;2.27;;
7047;SDS011;3565;53.254;10.352;2022-12-29T21:36:12;4.20;;;2.47;;
7047;SDS011;3565;53.254;10.352;2022-12-29T21:38:42;6.03;;;2.90;;
7047;SDS011;3565;53.254;10.352;2022-12-29T21:41:11;5.23;;;3.10;;
7047;SDS011;3565;53.254;10.352;2022-12-29T21:46:21;5.50;;;2.97;;
7047;SDS011;3565;53.254;10.352;2022-12-29T21:48:49;7.07;;;3.33;;
7047;SDS011;3565;53.254;10.352;2022-12-29T21:51:17;7.27;;;3.20;;
7047;SDS011;3565;53.254;10.352;2022-12-29T21:54:04;7.67;;;3.70;;
